sensor_id;sensor_type;location;lat;lon;timestamp;P1;durP1;ratioP1;P2;durP2;ratioP2
66478;SDS011;53294;47.912;13.526;2023-04-15T00:01:06;6.05;;;3.50;;
66478;SDS011;53294;47.912;13.526;2023-04-15T00:03:33;7.20;;;3.38;;
66478;SDS011;53294;47.912;13.526;2023-04-15T00:06:00;7.03;;;3.63;;
66478;SDS011;53294;47.912;13.526;2023-04-15T00:08:27;5.90;;;3.47;;
66478;SDS011;53294;47.912;13.526;2023-04-15T00:10:55;5.43;;;3.15;;
66478;SDS011;53294;47.912;13.526;2023-04-15T00:13:21;6.18;;;3.70;;
66478;SDS011;53294;47.912;13.526;2023-04-15T00:15:48;5.55;;;3.47;;
66478;SDS011;53294;47.912;13.526;2023-04-15T00:18:15;6.63;;;3.90;;
66478;SDS011;53294;47.912;13.526;2023-04-15T00:20:42;7.70;;;4.03;;
66478;SDS011;53294;47.912;13.526;2023-04-15T00:23:08;6.60;;;3.38;;
66478;SDS011;53294;47.912;13.526;2023-04-15T00:25:35;5.45;;;3.15;;
66478;SDS011;53294;47.912;13.526;2023-04-15T00:28:01;5.07;;;3.13;;
66478;SDS011;53294;47.912;13.526;2023-04-15T00:30:29;4.72;;;2.90;;
66478;SDS011;53294;47.912;13.526;2023-04-15T00:32:56;5.32;;;3.15;;
66478;SDS011;53294;47.912;13.526;2023-04-15T00:35:23;6.03;;;3.50;;
66478;SDS011;53294;47.912;13.526;2023-04-15T00:37:50;4.95;;;3.35;;
66478;SDS011;53294;47.912;13.526;2023-04-15T00:40:17;6.82;;;3.13;;
66478;SDS011;53294;47.912;13.526;2023-04-15T00:42:46;5.03;;;3.25;;
66478;SDS011;53294;47.912;13.526;2023-04-15T00:45:13;4.43;;;2.80;;
66478;SDS011;53294;47.912;13.526;2023-04-15T00:47:43;5.75;;;3.80;;
66478;SDS011;53294;47.912;13.526;2023-04-15T00:50:10;4.97;;;2.80;;
66478;SDS011;53294;47.912;13.526;2023-04-15T00:52:38;5.25;;;3.42;;
66478;SDS011;53294;47.912;13.526;2023-04-15T00:55:06;8.52;;;3.80;;
66478;SDS011;53294;47.912;13.526;2023-04-15T00:57:34;6.50;;;3.60;;
66478;SDS011;53294;47.912;13.526;2023-04-15T01:00:01;4.68;;;3.10;;
66478;SDS011;53294;47.912;13.526;2023-04-15T01:02:30;5.38;;;3.45;;
66478;SDS011;53294;47.912;13.526;2023-04-15T01:04:58;7.35;;;3.60;;
66478;SDS011;53294;47.912;13.526;2023-04-15T01:07:24;6.90;;;4.18;;
66478;SDS011;53294;47.912;13.526;2023-04-15T01:09:51;5.75;;;3.55;;
66478;SDS011;53294;47.912;13.526;2023-04-15T01:12:18;7.40;;;4.32;;
66478;SDS011;53294;47.912;13.526;2023-04-15T01:14:45;7.15;;;4.05;;
66478;SDS011;53294;47.912;13.526;2023-04-15T01:17:12;5.68;;;4.18;;
66478;SDS011;53294;47.912;13.526;2023-04-15T01:19:39;8.38;;;4.53;;
66478;SDS011;53294;47.912;13.526;2023-04-15T01:22:06;7.38;;;4.18;;
66478;SDS011;53294;47.912;13.526;2023-04-15T01:24:33;6.78;;;4.40;;
66478;SDS011;53294;47.912;13.526;2023-04-15T01:27:02;7.60;;;5.13;;
66478;SDS011;53294;47.912;13.526;2023-04-15T01:29:35;6.30;;;4.40;;
66478;SDS011;53294;47.912;13.526;2023-04-15T01:34:31;7.20;;;3.78;;
66478;SDS011;53294;47.912;13.526;2023-04-15T01:37:00;6.78;;;3.72;;
66478;SDS011;53294;47.912;13.526;2023-04-15T01:39:27;6.38;;;3.70;;
66478;SDS011;53294;47.912;13.526;2023-04-15T01:41:54;7.30;;;4.63;;
66478;SDS011;53294;47.912;13.526;2023-04-15T01:44:20;6.40;;;3.90;;
66478;SDS011;53294;47.912;13.526;2023-04-15T01:46:47;6.45;;;4.10;;
66478;SDS011;53294;47.912;13.526;2023-04-15T01:49:14;6.65;;;4.10;;
66478;SDS011;53294;47.912;13.526;2023-04-15T01:51:41;6.55;;;4.22;;
66478;SDS011;53294;47.912;13.526;2023-04-15T01:54:07;6.57;;;3.97;;
66478;SDS011;53294;47.912;13.526;2023-04-15T01:56:34;7.38;;;4.13;;
66478;SDS011;53294;47.912;13.526;2023-04-15T01:59:01;8.27;;;3.92;;
66478;SDS011;53294;47.912;13.526;2023-04-15T02:01:29;8.73;;;5.07;;
66478;SDS011;53294;47.912;13.526;2023-04-15T02:03:55;6.15;;;4.07;;
66478;SDS011;53294;47.912;13.526;2023-04-15T02:06:22;8.80;;;4.93;;
66478;SDS011;53294;47.912;13.526;2023-04-15T02:08:49;6.28;;;4.30;;
66478;SDS011;53294;47.912;13.526;2023-04-15T02:11:16;6.10;;;3.75;;
66478;SDS011;53294;47.912;13.526;2023-04-15T02:13:43;8.77;;;4.45;;
66478;SDS011;53294;47.912;13.526;2023-04-15T02:16:17;6.80;;;3.97;;
66478;SDS011;53294;47.912;13.526;2023-04-15T02:18:44;6.78;;;4.32;;
66478;SDS011;53294;47.912;13.526;2023-04-15T02:21:12;6.93;;;5.15;;
66478;SDS011;53294;47.912;13.526;2023-04-15T02:23:39;8.65;;;4.53;;
66478;SDS011;53294;47.912;13.526;2023-04-15T02:26:06;7.75;;;4.00;;
66478;SDS011;53294;47.912;13.526;2023-04-15T02:28:33;7.38;;;4.18;;
66478;SDS011;53294;47.912;13.526;2023-04-15T02:31:00;6.85;;;4.50;;
66478;SDS011;53294;47.912;13.526;2023-04-15T02:33:31;9.70;;;5.68;;
66478;SDS011;53294;47.912;13.526;2023-04-15T02:35:58;8.98;;;5.32;;
66478;SDS011;53294;47.912;13.526;2023-04-15T02:38:25;8.07;;;4.60;;
66478;SDS011;53294;47.912;13.526;2023-04-15T02:40:52;7.40;;;5.22;;
66478;SDS011;53294;47.912;13.526;2023-04-15T02:43:18;8.18;;;5.35;;
66478;SDS011;53294;47.912;13.526;2023-04-15T02:45:45;8.43;;;5.07;;
66478;SDS011;53294;47.912;13.526;2023-04-15T02:48:12;8.63;;;5.40;;
66478;SDS011;53294;47.912;13.526;2023-04-15T02:50:39;10.93;;;6.25;;
66478;SDS011;53294;47.912;13.526;2023-04-15T02:53:06;11.27;;;5.90;;
66478;SDS011;53294;47.912;13.526;2023-04-15T02:55:32;10.43;;;6.55;;
66478;SDS011;53294;47.912;13.526;2023-04-15T02:57:59;11.85;;;6.68;;
66478;SDS011;53294;47.912;13.526;2023-04-15T03:00:26;10.27;;;6.05;;
66478;SDS011;53294;47.912;13.526;2023-04-15T03:02:57;10.00;;;6.07;;
66478;SDS011;53294;47.912;13.526;2023-04-15T03:05:25;9.00;;;6.15;;
66478;SDS011;53294;47.912;13.526;2023-04-15T03:07:52;10.63;;;6.50;;
66478;SDS011;53294;47.912;13.526;2023-04-15T03:10:19;10.82;;;6.28;;
66478;SDS011;53294;47.912;13.526;2023-04-15T03:12:46;8.02;;;5.22;;
66478;SDS011;53294;47.912;13.526;2023-04-15T03:15:13;10.85;;;5.82;;
66478;SDS011;53294;47.912;13.526;2023-04-15T03:17:40;8.57;;;5.57;;
66478;SDS011;53294;47.912;13.526;2023-04-15T03:20:07;9.02;;;6.00;;
66478;SDS011;53294;47.912;13.526;2023-04-15T03:22:34;9.88;;;6.00;;
66478;SDS011;53294;47.912;13.526;2023-04-15T03:25:01;9.90;;;6.35;;
66478;SDS011;53294;47.912;13.526;2023-04-15T03:27:28;9.40;;;6.05;;
66478;SDS011;53294;47.912;13.526;2023-04-15T03:29:54;7.95;;;5.45;;
66478;SDS011;53294;47.912;13.526;2023-04-15T03:32:22;8.20;;;5.30;;
66478;SDS011;53294;47.912;13.526;2023-04-15T03:34:48;9.65;;;5.72;;
66478;SDS011;53294;47.912;13.526;2023-04-15T03:37:15;9.63;;;5.47;;
66478;SDS011;53294;47.912;13.526;2023-04-15T03:39:42;7.38;;;5.18;;
66478;SDS011;53294;47.912;13.526;2023-04-15T03:42:08;8.30;;;5.47;;
66478;SDS011;53294;47.912;13.526;2023-04-15T03:44:35;7.30;;;5.10;;
66478;SDS011;53294;47.912;13.526;2023-04-15T03:47:02;8.82;;;5.32;;
66478;SDS011;53294;47.912;13.526;2023-04-15T03:49:29;8.45;;;4.97;;
66478;SDS011;53294;47.912;13.526;2023-04-15T03:51:55;10.98;;;5.82;;
66478;SDS011;53294;47.912;13.526;2023-04-15T03:54:22;10.98;;;5.45;;
66478;SDS011;53294;47.912;13.526;2023-04-15T03:56:49;9.57;;;5.82;;
66478;SDS011;53294;47.912;13.526;2023-04-15T03:59:15;8.10;;;4.82;;
66478;SDS011;53294;47.912;13.526;2023-04-15T04:01:42;10.52;;;6.03;;
66478;SDS011;53294;47.912;13.526;2023-04-15T04:04:09;8.45;;;5.47;;
66478;SDS011;53294;47.912;13.526;2023-04-15T04:06:36;8.88;;;5.20;;
66478;SDS011;53294;47.912;13.526;2023-04-15T04:09:03;9.32;;;5.15;;
66478;SDS011;53294;47.912;13.526;2023-04-15T04:11:29;8.48;;;5.43;;
66478;SDS011;53294;47.912;13.526;2023-04-15T04:13:56;7.78;;;4.85;;
66478;SDS011;53294;47.912;13.526;2023-04-15T04:16:23;8.48;;;5.50;;
66478;SDS011;53294;47.912;13.526;2023-04-15T04:18:50;8.43;;;5.68;;
66478;SDS011;53294;47.912;13.526;2023-04-15T04:21:17;8.32;;;5.35;;
66478;SDS011;53294;47.912;13.526;2023-04-15T04:23:44;6.93;;;4.70;;
66478;SDS011;53294;47.912;13.526;2023-04-15T04:26:10;7.90;;;5.20;;
66478;SDS011;53294;47.912;13.526;2023-04-15T04:28:37;8.07;;;5.82;;
66478;SDS011;53294;47.912;13.526;2023-04-15T04:31:06;7.88;;;5.32;;
66478;SDS011;53294;47.912;13.526;2023-04-15T04:33:33;9.52;;;5.53;;
66478;SDS011;53294;47.912;13.526;2023-04-15T04:35:59;7.63;;;5.15;;
66478;SDS011;53294;47.912;13.526;2023-04-15T04:38:26;8.95;;;4.90;;
66478;SDS011;53294;47.912;13.526;2023-04-15T04:40:53;8.85;;;5.30;;
66478;SDS011;53294;47.912;13.526;2023-04-15T04:43:20;6.32;;;4.38;;
66478;SDS011;53294;47.912;13.526;2023-04-15T04:45:47;6.00;;;4.22;;
66478;SDS011;53294;47.912;13.526;2023-04-15T04:48:13;7.45;;;5.18;;
66478;SDS011;53294;47.912;13.526;2023-04-15T04:50:40;8.60;;;4.47;;
66478;SDS011;53294;47.912;13.526;2023-04-15T04:53:07;8.48;;;4.20;;
66478;SDS011;53294;47.912;13.526;2023-04-15T04:55:34;6.32;;;3.67;;
66478;SDS011;53294;47.912;13.526;2023-04-15T04:58:02;6.25;;;3.97;;
66478;SDS011;53294;47.912;13.526;2023-04-15T05:00:28;8.05;;;4.35;;
66478;SDS011;53294;47.912;13.526;2023-04-15T05:02:55;7.07;;;4.38;;
66478;SDS011;53294;47.912;13.526;2023-04-15T05:05:22;8.95;;;5.60;;
66478;SDS011;53294;47.912;13.526;2023-04-15T05:07:49;7.40;;;4.93;;
66478;SDS011;53294;47.912;13.526;2023-04-15T05:10:16;8.43;;;5.07;;
66478;SDS011;53294;47.912;13.526;2023-04-15T05:12:43;7.78;;;5.07;;
66478;SDS011;53294;47.912;13.526;2023-04-15T05:15:10;10.02;;;5.93;;
66478;SDS011;53294;47.912;13.526;2023-04-15T05:17:37;9.32;;;5.30;;
66478;SDS011;53294;47.912;13.526;2023-04-15T05:20:04;8.57;;;5.65;;
66478;SDS011;53294;47.912;13.526;2023-04-15T05:22:31;9.82;;;5.57;;
66478;SDS011;53294;47.912;13.526;2023-04-15T05:24:58;10.35;;;5.97;;
66478;SDS011;53294;47.912;13.526;2023-04-15T05:27:25;8.65;;;5.15;;
66478;SDS011;53294;47.912;13.526;2023-04-15T05:29:51;9.90;;;5.25;;
66478;SDS011;53294;47.912;13.526;2023-04-15T05:32:18;8.00;;;5.25;;
66478;SDS011;53294;47.912;13.526;2023-04-15T05:34:45;8.13;;;5.22;;
66478;SDS011;53294;47.912;13.526;2023-04-15T05:37:12;7.47;;;4.65;;
66478;SDS011;53294;47.912;13.526;2023-04-15T05:39:38;7.60;;;5.28;;
66478;SDS011;53294;47.912;13.526;2023-04-15T05:42:05;7.95;;;5.32;;
66478;SDS011;53294;47.912;13.526;2023-04-15T05:44:32;11.57;;;5.97;;
66478;SDS011;53294;47.912;13.526;2023-04-15T05:46:59;6.65;;;4.25;;
66478;SDS011;53294;47.912;13.526;2023-04-15T05:49:26;7.30;;;4.25;;
66478;SDS011;53294;47.912;13.526;2023-04-15T05:51:52;7.22;;;3.90;;
66478;SDS011;53294;47.912;13.526;2023-04-15T05:54:19;5.95;;;3.55;;
66478;SDS011;53294;47.912;13.526;2023-04-15T05:56:48;6.57;;;3.80;;
66478;SDS011;53294;47.912;13.526;2023-04-15T05:59:15;6.00;;;3.47;;
66478;SDS011;53294;47.912;13.526;2023-04-15T06:01:41;6.30;;;4.05;;
66478;SDS011;53294;47.912;13.526;2023-04-15T06:04:09;5.57;;;2.92;;
66478;SDS011;53294;47.912;13.526;2023-04-15T06:06:36;5.65;;;2.95;;
66478;SDS011;53294;47.912;13.526;2023-04-15T06:09:03;6.18;;;3.17;;
66478;SDS011;53294;47.912;13.526;2023-04-15T06:11:30;6.93;;;3.67;;
66478;SDS011;53294;47.912;13.526;2023-04-15T06:13:57;6.03;;;3.20;;
66478;SDS011;53294;47.912;13.526;2023-04-15T06:16:24;6.35;;;3.88;;
66478;SDS011;53294;47.912;13.526;2023-04-15T06:18:50;15.50;;;6.88;;
66478;SDS011;53294;47.912;13.526;2023-04-15T06:21:17;13.13;;;6.28;;
66478;SDS011;53294;47.912;13.526;2023-04-15T06:23:44;6.78;;;3.67;;
66478;SDS011;53294;47.912;13.526;2023-04-15T06:26:11;6.00;;;3.40;;
66478;SDS011;53294;47.912;13.526;2023-04-15T06:28:38;6.90;;;3.22;;
66478;SDS011;53294;47.912;13.526;2023-04-15T06:31:04;6.38;;;3.13;;
66478;SDS011;53294;47.912;13.526;2023-04-15T06:33:31;5.40;;;3.22;;
66478;SDS011;53294;47.912;13.526;2023-04-15T06:35:58;6.53;;;4.00;;
66478;SDS011;53294;47.912;13.526;2023-04-15T06:38:24;5.72;;;3.05;;
66478;SDS011;53294;47.912;13.526;2023-04-15T06:40:51;4.80;;;3.15;;
66478;SDS011;53294;47.912;13.526;2023-04-15T06:43:19;4.05;;;2.42;;
66478;SDS011;53294;47.912;13.526;2023-04-15T06:45:46;3.38;;;2.13;;
66478;SDS011;53294;47.912;13.526;2023-04-15T06:48:12;5.65;;;2.97;;
66478;SDS011;53294;47.912;13.526;2023-04-15T06:50:39;3.40;;;2.50;;
66478;SDS011;53294;47.912;13.526;2023-04-15T06:53:06;5.32;;;3.17;;
66478;SDS011;53294;47.912;13.526;2023-04-15T06:55:33;5.00;;;2.80;;
66478;SDS011;53294;47.912;13.526;2023-04-15T06:57:59;3.80;;;2.55;;
66478;SDS011;53294;47.912;13.526;2023-04-15T07:00:26;3.83;;;2.63;;
66478;SDS011;53294;47.912;13.526;2023-04-15T07:02:53;4.20;;;2.38;;
66478;SDS011;53294;47.912;13.526;2023-04-15T07:05:21;4.68;;;2.65;;
66478;SDS011;53294;47.912;13.526;2023-04-15T07:07:48;3.90;;;2.30;;
66478;SDS011;53294;47.912;13.526;2023-04-15T07:10:15;4.88;;;2.42;;
66478;SDS011;53294;47.912;13.526;2023-04-15T07:12:42;4.40;;;3.00;;
66478;SDS011;53294;47.912;13.526;2023-04-15T07:15:09;4.72;;;2.60;;
66478;SDS011;53294;47.912;13.526;2023-04-15T07:17:36;5.75;;;2.90;;
66478;SDS011;53294;47.912;13.526;2023-04-15T07:20:03;4.90;;;3.00;;
66478;SDS011;53294;47.912;13.526;2023-04-15T07:22:30;5.70;;;3.28;;
66478;SDS011;53294;47.912;13.526;2023-04-15T07:24:56;4.65;;;2.90;;
66478;SDS011;53294;47.912;13.526;2023-04-15T07:27:23;5.35;;;2.78;;
66478;SDS011;53294;47.912;13.526;2023-04-15T07:29:50;4.55;;;2.67;;
66478;SDS011;53294;47.912;13.526;2023-04-15T07:32:17;4.20;;;2.47;;
66478;SDS011;53294;47.912;13.526;2023-04-15T07:34:44;4.40;;;2.58;;
66478;SDS011;53294;47.912;13.526;2023-04-15T07:37:11;4.78;;;2.60;;
66478;SDS011;53294;47.912;13.526;2023-04-15T07:39:38;4.93;;;2.17;;
66478;SDS011;53294;47.912;13.526;2023-04-15T07:42:05;4.82;;;2.15;;
66478;SDS011;53294;47.912;13.526;2023-04-15T07:44:34;4.20;;;1.92;;
66478;SDS011;53294;47.912;13.526;2023-04-15T07:47:01;4.80;;;2.50;;
66478;SDS011;53294;47.912;13.526;2023-04-15T07:49:28;4.70;;;2.22;;
66478;SDS011;53294;47.912;13.526;2023-04-15T07:51:55;4.13;;;2.00;;
66478;SDS011;53294;47.912;13.526;2023-04-15T07:54:22;3.78;;;1.95;;
66478;SDS011;53294;47.912;13.526;2023-04-15T07:56:49;3.90;;;2.13;;
66478;SDS011;53294;47.912;13.526;2023-04-15T07:59:16;3.22;;;1.80;;
66478;SDS011;53294;47.912;13.526;2023-04-15T08:01:43;2.47;;;1.75;;
66478;SDS011;53294;47.912;13.526;2023-04-15T08:04:10;2.78;;;1.60;;
66478;SDS011;53294;47.912;13.526;2023-04-15T08:06:37;2.95;;;1.70;;
66478;SDS011;53294;47.912;13.526;2023-04-15T08:09:05;2.40;;;1.45;;
66478;SDS011;53294;47.912;13.526;2023-04-15T08:11:32;2.47;;;1.60;;
66478;SDS011;53294;47.912;13.526;2023-04-15T08:13:59;2.42;;;1.67;;
66478;SDS011;53294;47.912;13.526;2023-04-15T08:16:25;2.55;;;1.60;;
66478;SDS011;53294;47.912;13.526;2023-04-15T08:18:54;2.00;;;1.50;;
66478;SDS011;53294;47.912;13.526;2023-04-15T08:21:22;2.08;;;1.48;;
66478;SDS011;53294;47.912;13.526;2023-04-15T08:23:49;2.20;;;1.55;;
66478;SDS011;53294;47.912;13.526;2023-04-15T08:26:17;3.53;;;1.90;;
66478;SDS011;53294;47.912;13.526;2023-04-15T08:28:45;2.58;;;1.50;;
66478;SDS011;53294;47.912;13.526;2023-04-15T08:31:13;2.40;;;1.40;;
66478;SDS011;53294;47.912;13.526;2023-04-15T08:33:40;2.35;;;1.52;;
66478;SDS011;53294;47.912;13.526;2023-04-15T08:36:07;2.47;;;1.33;;
66478;SDS011;53294;47.912;13.526;2023-04-15T08:38:34;2.17;;;1.40;;
66478;SDS011;53294;47.912;13.526;2023-04-15T08:41:03;2.30;;;1.50;;
66478;SDS011;53294;47.912;13.526;2023-04-15T08:43:33;3.35;;;1.75;;
66478;SDS011;53294;47.912;13.526;2023-04-15T08:46:01;3.25;;;1.70;;
66478;SDS011;53294;47.912;13.526;2023-04-15T08:48:31;2.60;;;1.55;;
66478;SDS011;53294;47.912;13.526;2023-04-15T08:50:58;2.67;;;1.75;;
66478;SDS011;53294;47.912;13.526;2023-04-15T08:53:27;2.38;;;1.73;;
66478;SDS011;53294;47.912;13.526;2023-04-15T08:55:54;2.65;;;1.83;;
66478;SDS011;53294;47.912;13.526;2023-04-15T08:58:23;3.30;;;1.70;;
66478;SDS011;53294;47.912;13.526;2023-04-15T09:00:50;2.45;;;1.77;;
66478;SDS011;53294;47.912;13.526;2023-04-15T09:03:17;2.95;;;1.90;;
66478;SDS011;53294;47.912;13.526;2023-04-15T09:05:44;4.38;;;2.40;;
66478;SDS011;53294;47.912;13.526;2023-04-15T09:08:12;3.65;;;1.65;;
66478;SDS011;53294;47.912;13.526;2023-04-15T09:10:39;4.72;;;2.40;;
66478;SDS011;53294;47.912;13.526;2023-04-15T09:13:05;2.97;;;1.92;;
66478;SDS011;53294;47.912;13.526;2023-04-15T09:15:32;4.55;;;2.28;;
66478;SDS011;53294;47.912;13.526;2023-04-15T09:17:58;2.88;;;1.77;;
66478;SDS011;53294;47.912;13.526;2023-04-15T09:20:26;4.85;;;2.40;;
66478;SDS011;53294;47.912;13.526;2023-04-15T09:22:53;5.13;;;2.38;;
66478;SDS011;53294;47.912;13.526;2023-04-15T09:27:50;3.80;;;2.60;;
66478;SDS011;53294;47.912;13.526;2023-04-15T09:30:18;5.18;;;2.75;;
66478;SDS011;53294;47.912;13.526;2023-04-15T09:32:51;4.22;;;2.50;;
66478;SDS011;53294;47.912;13.526;2023-04-15T09:35:20;6.95;;;3.13;;
66478;SDS011;53294;47.912;13.526;2023-04-15T09:37:50;5.63;;;3.20;;
66478;SDS011;53294;47.912;13.526;2023-04-15T09:40:30;5.32;;;3.08;;
66478;SDS011;53294;47.912;13.526;2023-04-15T09:43:03;5.32;;;3.30;;
66478;SDS011;53294;47.912;13.526;2023-04-15T09:45:31;4.32;;;2.67;;
66478;SDS011;53294;47.912;13.526;2023-04-15T09:47:59;4.68;;;3.28;;
66478;SDS011;53294;47.912;13.526;2023-04-15T09:50:41;6.20;;;3.30;;
66478;SDS011;53294;47.912;13.526;2023-04-15T09:53:09;5.40;;;3.67;;
66478;SDS011;53294;47.912;13.526;2023-04-15T09:55:37;4.60;;;3.10;;
66478;SDS011;53294;47.912;13.526;2023-04-15T09:58:07;5.35;;;3.50;;
66478;SDS011;53294;47.912;13.526;2023-04-15T10:00:35;4.97;;;2.97;;
66478;SDS011;53294;47.912;13.526;2023-04-15T10:03:04;5.50;;;3.08;;
66478;SDS011;53294;47.912;13.526;2023-04-15T10:05:31;5.88;;;3.30;;
66478;SDS011;53294;47.912;13.526;2023-04-15T10:07:58;5.78;;;3.47;;
66478;SDS011;53294;47.912;13.526;2023-04-15T10:10:25;5.43;;;3.15;;
66478;SDS011;53294;47.912;13.526;2023-04-15T10:12:52;5.63;;;3.15;;
66478;SDS011;53294;47.912;13.526;2023-04-15T10:15:19;4.75;;;2.85;;
66478;SDS011;53294;47.912;13.526;2023-04-15T10:17:47;6.03;;;2.95;;
66478;SDS011;53294;47.912;13.526;2023-04-15T10:20:18;4.82;;;2.88;;
66478;SDS011;53294;47.912;13.526;2023-04-15T10:22:47;4.07;;;2.58;;
66478;SDS011;53294;47.912;13.526;2023-04-15T10:25:14;4.10;;;2.40;;
66478;SDS011;53294;47.912;13.526;2023-04-15T10:27:41;4.32;;;2.75;;
66478;SDS011;53294;47.912;13.526;2023-04-15T10:30:08;4.38;;;2.53;;
66478;SDS011;53294;47.912;13.526;2023-04-15T10:32:36;5.78;;;3.17;;
66478;SDS011;53294;47.912;13.526;2023-04-15T10:35:04;5.75;;;3.40;;
66478;SDS011;53294;47.912;13.526;2023-04-15T10:37:35;6.00;;;3.47;;
66478;SDS011;53294;47.912;13.526;2023-04-15T10:42:54;5.65;;;3.40;;
66478;SDS011;53294;47.912;13.526;2023-04-15T10:45:21;7.20;;;3.90;;
66478;SDS011;53294;47.912;13.526;2023-04-15T10:47:56;6.53;;;3.63;;
66478;SDS011;53294;47.912;13.526;2023-04-15T10:50:25;5.33;;;3.77;;
66478;SDS011;53294;47.912;13.526;2023-04-15T10:52:52;6.00;;;3.58;;
66478;SDS011;53294;47.912;13.526;2023-04-15T10:55:21;4.78;;;3.22;;
66478;SDS011;53294;47.912;13.526;2023-04-15T10:57:51;6.13;;;3.40;;
66478;SDS011;53294;47.912;13.526;2023-04-15T11:00:24;5.32;;;2.97;;
66478;SDS011;53294;47.912;13.526;2023-04-15T11:02:56;5.38;;;3.05;;
66478;SDS011;53294;47.912;13.526;2023-04-15T11:08:10;6.72;;;3.97;;
66478;SDS011;53294;47.912;13.526;2023-04-15T11:13:06;7.95;;;4.22;;
66478;SDS011;53294;47.912;13.526;2023-04-15T11:15:45;7.07;;;3.90;;
66478;SDS011;53294;47.912;13.526;2023-04-15T11:20:48;9.85;;;4.60;;
66478;SDS011;53294;47.912;13.526;2023-04-15T11:23:17;6.82;;;3.63;;
66478;SDS011;53294;47.912;13.526;2023-04-15T11:25:45;8.57;;;4.38;;
66478;SDS011;53294;47.912;13.526;2023-04-15T11:28:12;6.88;;;4.03;;
66478;SDS011;53294;47.912;13.526;2023-04-15T11:30:39;6.68;;;3.70;;
66478;SDS011;53294;47.912;13.526;2023-04-15T11:33:08;7.78;;;3.63;;
66478;SDS011;53294;47.912;13.526;2023-04-15T11:35:36;7.65;;;4.03;;
66478;SDS011;53294;47.912;13.526;2023-04-15T11:38:03;6.68;;;4.00;;
66478;SDS011;53294;47.912;13.526;2023-04-15T11:40:30;8.32;;;4.63;;
66478;SDS011;53294;47.912;13.526;2023-04-15T11:43:14;9.55;;;5.00;;
66478;SDS011;53294;47.912;13.526;2023-04-15T11:48:20;7.07;;;4.78;;
66478;SDS011;53294;47.912;13.526;2023-04-15T11:50:54;9.63;;;5.25;;
66478;SDS011;53294;47.912;13.526;2023-04-15T11:53:23;7.32;;;4.57;;
66478;SDS011;53294;47.912;13.526;2023-04-15T11:55:51;6.40;;;4.65;;
66478;SDS011;53294;47.912;13.526;2023-04-15T11:58:22;8.90;;;4.65;;
66478;SDS011;53294;47.912;13.526;2023-04-15T12:00:54;7.38;;;4.53;;
66478;SDS011;53294;47.912;13.526;2023-04-15T12:06:17;9.25;;;4.70;;
66478;SDS011;53294;47.912;13.526;2023-04-15T12:13:57;7.22;;;4.53;;
66478;SDS011;53294;47.912;13.526;2023-04-15T12:16:29;7.90;;;4.88;;
66478;SDS011;53294;47.912;13.526;2023-04-15T12:18:57;7.80;;;4.47;;
66478;SDS011;53294;47.912;13.526;2023-04-15T12:21:25;7.70;;;4.25;;
66478;SDS011;53294;47.912;13.526;2023-04-15T12:23:54;8.00;;;4.47;;
66478;SDS011;53294;47.912;13.526;2023-04-15T12:26:33;8.15;;;4.28;;
66478;SDS011;53294;47.912;13.526;2023-04-15T12:29:09;7.05;;;4.38;;
66478;SDS011;53294;47.912;13.526;2023-04-15T12:31:43;6.22;;;3.92;;
66478;SDS011;53294;47.912;13.526;2023-04-15T12:34:16;6.00;;;3.58;;
66478;SDS011;53294;47.912;13.526;2023-04-15T12:36:43;6.40;;;3.72;;
66478;SDS011;53294;47.912;13.526;2023-04-15T12:39:09;5.43;;;3.50;;
66478;SDS011;53294;47.912;13.526;2023-04-15T12:41:36;5.00;;;3.20;;
66478;SDS011;53294;47.912;13.526;2023-04-15T12:44:03;6.00;;;4.07;;
66478;SDS011;53294;47.912;13.526;2023-04-15T12:46:31;5.80;;;3.65;;
66478;SDS011;53294;47.912;13.526;2023-04-15T12:48:58;6.05;;;3.30;;
66478;SDS011;53294;47.912;13.526;2023-04-15T12:51:24;5.00;;;3.30;;
66478;SDS011;53294;47.912;13.526;2023-04-15T12:53:52;6.15;;;4.10;;
66478;SDS011;53294;47.912;13.526;2023-04-15T12:56:19;5.28;;;3.13;;
66478;SDS011;53294;47.912;13.526;2023-04-15T12:58:45;6.22;;;3.88;;
66478;SDS011;53294;47.912;13.526;2023-04-15T13:01:12;6.10;;;3.45;;
66478;SDS011;53294;47.912;13.526;2023-04-15T13:03:39;6.85;;;4.10;;
66478;SDS011;53294;47.912;13.526;2023-04-15T13:06:06;6.80;;;3.50;;
66478;SDS011;53294;47.912;13.526;2023-04-15T13:08:33;7.25;;;3.83;;
66478;SDS011;53294;47.912;13.526;2023-04-15T13:11:03;6.45;;;4.03;;
66478;SDS011;53294;47.912;13.526;2023-04-15T13:13:30;5.50;;;3.70;;
66478;SDS011;53294;47.912;13.526;2023-04-15T13:15:57;7.90;;;4.18;;
66478;SDS011;53294;47.912;13.526;2023-04-15T13:18:24;7.72;;;4.15;;
66478;SDS011;53294;47.912;13.526;2023-04-15T13:20:50;7.25;;;3.92;;
66478;SDS011;53294;47.912;13.526;2023-04-15T13:23:17;7.03;;;4.05;;
66478;SDS011;53294;47.912;13.526;2023-04-15T13:25:44;7.50;;;4.18;;
66478;SDS011;53294;47.912;13.526;2023-04-15T13:28:11;7.05;;;3.95;;
66478;SDS011;53294;47.912;13.526;2023-04-15T13:30:38;7.60;;;4.40;;
66478;SDS011;53294;47.912;13.526;2023-04-15T13:33:04;7.10;;;4.13;;
66478;SDS011;53294;47.912;13.526;2023-04-15T13:35:31;6.65;;;4.43;;
66478;SDS011;53294;47.912;13.526;2023-04-15T13:37:58;6.63;;;3.88;;
66478;SDS011;53294;47.912;13.526;2023-04-15T13:40:25;7.25;;;4.32;;
66478;SDS011;53294;47.912;13.526;2023-04-15T13:42:52;7.47;;;4.00;;
66478;SDS011;53294;47.912;13.526;2023-04-15T13:45:19;7.85;;;4.32;;
66478;SDS011;53294;47.912;13.526;2023-04-15T13:47:45;7.47;;;4.07;;
66478;SDS011;53294;47.912;13.526;2023-04-15T13:50:12;7.70;;;4.30;;
66478;SDS011;53294;47.912;13.526;2023-04-15T13:52:39;6.60;;;4.13;;
66478;SDS011;53294;47.912;13.526;2023-04-15T13:55:06;5.75;;;3.70;;
66478;SDS011;53294;47.912;13.526;2023-04-15T13:57:46;7.47;;;3.90;;
66478;SDS011;53294;47.912;13.526;2023-04-15T14:00:13;7.25;;;4.15;;
66478;SDS011;53294;47.912;13.526;2023-04-15T14:02:40;7.05;;;4.13;;
66478;SDS011;53294;47.912;13.526;2023-04-15T14:05:08;8.32;;;4.43;;
66478;SDS011;53294;47.912;13.526;2023-04-15T14:07:36;5.13;;;3.13;;
66478;SDS011;53294;47.912;13.526;2023-04-15T14:10:03;6.38;;;3.88;;
66478;SDS011;53294;47.912;13.526;2023-04-15T14:12:30;6.50;;;3.50;;
66478;SDS011;53294;47.912;13.526;2023-04-15T14:14:56;6.95;;;4.22;;
66478;SDS011;53294;47.912;13.526;2023-04-15T14:17:23;6.60;;;3.83;;
66478;SDS011;53294;47.912;13.526;2023-04-15T14:19:50;6.93;;;3.67;;
66478;SDS011;53294;47.912;13.526;2023-04-15T14:22:17;7.38;;;4.03;;
66478;SDS011;53294;47.912;13.526;2023-04-15T14:24:44;6.95;;;3.92;;
66478;SDS011;53294;47.912;13.526;2023-04-15T14:27:10;6.05;;;3.53;;
66478;SDS011;53294;47.912;13.526;2023-04-15T14:29:37;7.95;;;4.53;;
66478;SDS011;53294;47.912;13.526;2023-04-15T14:32:04;6.38;;;3.90;;
66478;SDS011;53294;47.912;13.526;2023-04-15T14:34:37;8.32;;;3.97;;
66478;SDS011;53294;47.912;13.526;2023-04-15T14:37:04;10.13;;;6.38;;
66478;SDS011;53294;47.912;13.526;2023-04-15T14:39:31;8.45;;;5.10;;
66478;SDS011;53294;47.912;13.526;2023-04-15T14:41:58;8.35;;;4.43;;
66478;SDS011;53294;47.912;13.526;2023-04-15T14:44:25;7.78;;;5.22;;
66478;SDS011;53294;47.912;13.526;2023-04-15T14:46:51;10.85;;;4.13;;
66478;SDS011;53294;47.912;13.526;2023-04-15T14:49:18;8.57;;;4.90;;
66478;SDS011;53294;47.912;13.526;2023-04-15T14:51:45;10.47;;;5.80;;
66478;SDS011;53294;47.912;13.526;2023-04-15T14:54:11;10.43;;;6.53;;
66478;SDS011;53294;47.912;13.526;2023-04-15T14:56:38;8.55;;;4.97;;
66478;SDS011;53294;47.912;13.526;2023-04-15T14:59:05;6.53;;;4.40;;
66478;SDS011;53294;47.912;13.526;2023-04-15T15:01:32;6.88;;;4.57;;